sensor_id;sensor_type;location;lat;lon;timestamp;pressure;altitude;pressure_sealevel;temperature;humidity
64675;BME280;51090;51.512;11.332;2023-09-19T00:00:47;98593.38;;;20.02;100.00
64675;BME280;51090;51.512;11.332;2023-09-19T00:03:14;98590.44;;;20.04;100.00
64675;BME280;51090;51.512;11.332;2023-09-19T00:05:40;98585.84;;;20.05;100.00
64675;BME280;51090;51.512;11.332;2023-09-19T00:08:10;98575.63;;;20.07;100.00
64675;BME280;51090;51.512;11.332;2023-09-19T00:10:36;98569.72;;;20.05;100.00
64675;BME280;51090;51.512;11.332;2023-09-19T00:13:03;98579.94;;;20.13;100.00
64675;BME280;51090;51.512;11.332;2023-09-19T00:15:39;98589.09;;;20.17;100.00
64675;BME280;51090;51.512;11.332;2023-09-19T00:18:06;98593.94;;;20.20;100.00
64675;BME280;51090;51.512;11.332;2023-09-19T00:20:35;98593.16;;;20.19;100.00
64675;BME280;51090;51.512;11.332;2023-09-19T00:23:00;98590.47;;;20.25;100.00
64675;BME280;51090;51.512;11.332;2023-09-19T00:25:36;98580.50;;;20.25;100.00
64675;BME280;51090;51.512;11.332;2023-09-19T00:28:03;98577.25;;;20.23;100.00
64675;BME280;51090;51.512;11.332;2023-09-19T00:30:31;98581.53;;;20.19;100.00
64675;BME280;51090;51.512;11.332;2023-09-19T00:32:56;98581.53;;;20.14;100.00
64675;BME280;51090;51.512;11.332;2023-09-19T00:35:22;98579.94;;;20.08;100.00
64675;BME280;51090;51.512;11.332;2023-09-19T00:37:51;98574.56;;;20.08;100.00
64675;BME280;51090;51.512;11.332;2023-09-19T00:40:18;98583.44;;;20.08;100.00
64675;BME280;51090;51.512;11.332;2023-09-19T00:42:45;98589.91;;;20.12;100.00
64675;BME280;51090;51.512;11.332;2023-09-19T00:45:15;98582.63;;;20.13;100.00
64675;BME280;51090;51.512;11.332;2023-09-19T00:47:50;98592.84;;;20.11;100.00
64675;BME280;51090;51.512;11.332;2023-09-19T00:50:19;98585.56;;;20.06;100.00
64675;BME280;51090;51.512;11.332;2023-09-19T00:52:47;98575.09;;;19.99;100.00
64675;BME280;51090;51.512;11.332;2023-09-19T00:55:15;98586.38;;;19.96;100.00
64675;BME280;51090;51.512;11.332;2023-09-19T00:57:42;98589.06;;;19.86;100.00
64675;BME280;51090;51.512;11.332;2023-09-19T01:00:10;98582.31;;;19.73;100.00
64675;BME280;51090;51.512;11.332;2023-09-19T01:02:42;98579.56;;;19.63;100.00
64675;BME280;51090;51.512;11.332;2023-09-19T01:05:09;98574.94;;;19.48;100.00
64675;BME280;51090;51.512;11.332;2023-09-19T01:07:36;98571.69;;;19.46;100.00
64675;BME280;51090;51.512;11.332;2023-09-19T01:10:14;98577.38;;;19.50;100.00
64675;BME280;51090;51.512;11.332;2023-09-19T01:13:22;98570.66;;;19.52;100.00
64675;BME280;51090;51.512;11.332;2023-09-19T01:16:19;98582.78;;;19.60;100.00
64675;BME280;51090;51.512;11.332;2023-09-19T01:22:06;98579.53;;;19.58;100.00
64675;BME280;51090;51.512;11.332;2023-09-19T01:27:53;98590.63;;;19.67;100.00
64675;BME280;51090;51.512;11.332;2023-09-19T01:30:33;98583.06;;;19.64;100.00
64675;BME280;51090;51.512;11.332;2023-09-19T01:33:01;98592.19;;;19.57;100.00
64675;BME280;51090;51.512;11.332;2023-09-19T01:35:29;98591.63;;;19.50;100.00
64675;BME280;51090;51.512;11.332;2023-09-19T01:37:55;98602.06;;;19.47;100.00
64675;BME280;51090;51.512;11.332;2023-09-19T01:40:21;98589.97;;;19.44;100.00
64675;BME280;51090;51.512;11.332;2023-09-19T01:48:25;98607.16;;;19.38;100.00
64675;BME280;51090;51.512;11.332;2023-09-19T01:51:10;98604.97;;;19.30;100.00
64675;BME280;51090;51.512;11.332;2023-09-19T01:53:53;98595.00;;;19.25;100.00
64675;BME280;51090;51.512;11.332;2023-09-19T01:56:44;98593.66;;;19.28;100.00
64675;BME280;51090;51.512;11.332;2023-09-19T01:59:22;98606.59;;;19.31;100.00
64675;BME280;51090;51.512;11.332;2023-09-19T02:01:52;98604.69;;;19.26;100.00
64675;BME280;51090;51.512;11.332;2023-09-19T02:04:18;98617.63;;;19.29;100.00
64675;BME280;51090;51.512;11.332;2023-09-19T02:06:44;98613.56;;;19.27;100.00
64675;BME280;51090;51.512;11.332;2023-09-19T02:09:14;98615.16;;;19.23;100.00
64675;BME280;51090;51.512;11.332;2023-09-19T02:11:40;98618.34;;;19.14;100.00
64675;BME280;51090;51.512;11.332;2023-09-19T02:14:08;98626.38;;;19.09;100.00
64675;BME280;51090;51.512;11.332;2023-09-19T02:16:34;98623.66;;;19.04;100.00
64675;BME280;51090;51.512;11.332;2023-09-19T02:19:00;98634.09;;;19.01;100.00
64675;BME280;51090;51.512;11.332;2023-09-19T02:21:30;98621.97;;;18.93;100.00
64675;BME280;51090;51.512;11.332;2023-09-19T02:23:57;98630.53;;;18.90;100.00
64675;BME280;51090;51.512;11.332;2023-09-19T02:26:24;98639.66;;;18.84;100.00
64675;BME280;51090;51.512;11.332;2023-09-19T02:28:50;98642.53;;;18.77;100.00
64675;BME280;51090;51.512;11.332;2023-09-19T02:31:16;98643.00;;;18.69;100.00
64675;BME280;51090;51.512;11.332;2023-09-19T02:33:42;98651.81;;;18.64;100.00
64675;BME280;51090;51.512;11.332;2023-09-19T02:36:09;98661.47;;;18.60;100.00
64675;BME280;51090;51.512;11.332;2023-09-19T02:38:34;98650.69;;;18.55;100.00
64675;BME280;51090;51.512;11.332;2023-09-19T02:41:00;98661.91;;;18.52;100.00
64675;BME280;51090;51.512;11.332;2023-09-19T02:43:27;98662.66;;;18.42;100.00
64675;BME280;51090;51.512;11.332;2023-09-19T02:45:53;98664.97;;;18.34;100.00
64675;BME280;51090;51.512;11.332;2023-09-19T02:48:19;98668.69;;;18.27;100.00
64675;BME280;51090;51.512;11.332;2023-09-19T02:50:49;98657.34;;;18.20;100.00
64675;BME280;51090;51.512;11.332;2023-09-19T02:53:15;98673.19;;;18.22;100.00
64675;BME280;51090;51.512;11.332;2023-09-19T02:55:41;98672.34;;;18.16;100.00
64675;BME280;51090;51.512;11.332;2023-09-19T02:58:08;98673.03;;;18.06;100.00
64675;BME280;51090;51.512;11.332;2023-09-19T03:00:36;98673.28;;;18.05;100.00
64675;BME280;51090;51.512;11.332;2023-09-19T03:03:02;98683.16;;;17.99;100.00
64675;BME280;51090;51.512;11.332;2023-09-19T03:05:28;98692.22;;;17.93;100.00
64675;BME280;51090;51.512;11.332;2023-09-19T03:07:57;98692.16;;;17.88;100.00
64675;BME280;51090;51.512;11.332;2023-09-19T03:10:26;98690.22;;;17.83;100.00
64675;BME280;51090;51.512;11.332;2023-09-19T03:12:52;98683.72;;;17.79;100.00
64675;BME280;51090;51.512;11.332;2023-09-19T03:15:17;98669.06;;;17.65;100.00
64675;BME280;51090;51.512;11.332;2023-09-19T03:17:45;98687.94;;;17.75;100.00
64675;BME280;51090;51.512;11.332;2023-09-19T03:20:12;98692.47;;;17.75;100.00
64675;BME280;51090;51.512;11.332;2023-09-19T03:22:39;98695.16;;;17.75;100.00
64675;BME280;51090;51.512;11.332;2023-09-19T03:25:06;98691.09;;;17.72;100.00
64675;BME280;51090;51.512;11.332;2023-09-19T03:27:37;98665.91;;;17.51;100.00
64675;BME280;51090;51.512;11.332;2023-09-19T03:30:04;98700.38;;;17.64;100.00
64675;BME280;51090;51.512;11.332;2023-09-19T03:32:43;98689.06;;;17.57;100.00
64675;BME280;51090;51.512;11.332;2023-09-19T03:35:08;98716.75;;;17.63;100.00
64675;BME280;51090;51.512;11.332;2023-09-19T03:37:41;98715.16;;;17.67;100.00
64675;BME280;51090;51.512;11.332;2023-09-19T03:40:09;98713.31;;;17.68;100.00
64675;BME280;51090;51.512;11.332;2023-09-19T03:42:41;98718.41;;;17.69;100.00
64675;BME280;51090;51.512;11.332;2023-09-19T03:45:10;98720.78;;;17.66;100.00
64675;BME280;51090;51.512;11.332;2023-09-19T03:47:41;98718.84;;;17.61;100.00
64675;BME280;51090;51.512;11.332;2023-09-19T03:50:08;98718.28;;;17.59;100.00
64675;BME280;51090;51.512;11.332;2023-09-19T03:52:36;98716.59;;;17.53;100.00
64675;BME280;51090;51.512;11.332;2023-09-19T03:55:02;98720.09;;;17.53;100.00
64675;BME280;51090;51.512;11.332;2023-09-19T03:57:31;98720.31;;;17.52;100.00
64675;BME280;51090;51.512;11.332;2023-09-19T03:59:57;98722.94;;;17.47;100.00
64675;BME280;51090;51.512;11.332;2023-09-19T04:02:23;98723.19;;;17.45;100.00
64675;BME280;51090;51.512;11.332;2023-09-19T04:04:53;98716.97;;;17.39;100.00
64675;BME280;51090;51.512;11.332;2023-09-19T04:07:19;98723.38;;;17.38;100.00
64675;BME280;51090;51.512;11.332;2023-09-19T04:09:48;98720.38;;;17.35;100.00
64675;BME280;51090;51.512;11.332;2023-09-19T04:12:14;98724.09;;;17.34;100.00
64675;BME280;51090;51.512;11.332;2023-09-19T04:14:43;98721.69;;;17.32;100.00
64675;BME280;51090;51.512;11.332;2023-09-19T04:17:09;98729.72;;;17.32;100.00
64675;BME280;51090;51.512;11.332;2023-09-19T04:19:36;98728.66;;;17.33;100.00
64675;BME280;51090;51.512;11.332;2023-09-19T04:22:02;98731.09;;;17.35;100.00
64675;BME280;51090;51.512;11.332;2023-09-19T04:24:28;98732.47;;;17.37;100.00
64675;BME280;51090;51.512;11.332;2023-09-19T04:26:54;98728.16;;;17.36;100.00
64675;BME280;51090;51.512;11.332;2023-09-19T04:29:19;98734.41;;;17.42;100.00
64675;BME280;51090;51.512;11.332;2023-09-19T04:31:45;98739.50;;;17.44;100.00
64675;BME280;51090;51.512;11.332;2023-09-19T04:34:12;98726.63;;;17.40;100.00
64675;BME280;51090;51.512;11.332;2023-09-19T04:36:41;98743.25;;;17.42;100.00
64675;BME280;51090;51.512;11.332;2023-09-19T04:39:07;98739.50;;;17.44;100.00
64675;BME280;51090;51.512;11.332;2023-09-19T04:41:33;98753.19;;;17.42;100.00
64675;BME280;51090;51.512;11.332;2023-09-19T04:44:00;98757.25;;;17.45;100.00
64675;BME280;51090;51.512;11.332;2023-09-19T04:46:25;98753.41;;;17.40;100.00
64675;BME280;51090;51.512;11.332;2023-09-19T04:48:51;98754.56;;;17.45;100.00
64675;BME280;51090;51.512;11.332;2023-09-19T04:51:17;98760.72;;;17.45;100.00
64675;BME280;51090;51.512;11.332;2023-09-19T04:53:44;98758.84;;;17.46;100.00
64675;BME280;51090;51.512;11.332;2023-09-19T04:56:10;98761.03;;;17.49;100.00
64675;BME280;51090;51.512;11.332;2023-09-19T04:58:35;98758.63;;;17.47;100.00
64675;BME280;51090;51.512;11.332;2023-09-19T05:01:01;98764.78;;;17.48;100.00
64675;BME280;51090;51.512;11.332;2023-09-19T05:03:27;98765.34;;;17.50;100.00
64675;BME280;51090;51.512;11.332;2023-09-19T05:05:53;98757.84;;;17.52;100.00
64675;BME280;51090;51.512;11.332;2023-09-19T05:08:19;98762.75;;;17.55;100.00
64675;BME280;51090;51.512;11.332;2023-09-19T05:10:45;98770.53;;;17.56;100.00
64675;BME280;51090;51.512;11.332;2023-09-19T05:13:11;98772.69;;;17.59;100.00
64675;BME280;51090;51.512;11.332;2023-09-19T05:15:37;98783.75;;;17.63;100.00
64675;BME280;51090;51.512;11.332;2023-09-19T05:18:03;98790.81;;;17.69;100.00
64675;BME280;51090;51.512;11.332;2023-09-19T05:20:29;98790.31;;;17.72;100.00
64675;BME280;51090;51.512;11.332;2023-09-19T05:23:06;98791.78;;;17.80;100.00
64675;BME280;51090;51.512;11.332;2023-09-19T05:25:36;98793.72;;;17.84;100.00
64675;BME280;51090;51.512;11.332;2023-09-19T05:28:02;98799.44;;;17.88;100.00
64675;BME280;51090;51.512;11.332;2023-09-19T05:30:29;98802.19;;;17.93;100.00
64675;BME280;51090;51.512;11.332;2023-09-19T05:32:55;98810.03;;;18.00;100.00
64675;BME280;51090;51.512;11.332;2023-09-19T05:35:22;98811.41;;;18.02;100.00
64675;BME280;51090;51.512;11.332;2023-09-19T05:37:50;98811.75;;;18.06;100.00
64675;BME280;51090;51.512;11.332;2023-09-19T05:40:18;98804.28;;;18.13;100.00
64675;BME280;51090;51.512;11.332;2023-09-19T05:42:44;98811.03;;;18.16;100.00
64675;BME280;51090;51.512;11.332;2023-09-19T05:45:10;98816.22;;;18.22;100.00
64675;BME280;51090;51.512;11.332;2023-09-19T05:47:40;98816.53;;;18.26;100.00
64675;BME280;51090;51.512;11.332;2023-09-19T05:50:09;98819.28;;;18.31;100.00
64675;BME280;51090;51.512;11.332;2023-09-19T05:52:38;98812.91;;;18.37;100.00
64675;BME280;51090;51.512;11.332;2023-09-19T05:55:08;98813.22;;;18.41;100.00
64675;BME280;51090;51.512;11.332;2023-09-19T05:57:34;98807.84;;;18.41;100.00
64675;BME280;51090;51.512;11.332;2023-09-19T06:00:00;98812.72;;;18.44;100.00
64675;BME280;51090;51.512;11.332;2023-09-19T06:02:26;98810.59;;;18.46;100.00
64675;BME280;51090;51.512;11.332;2023-09-19T06:04:56;98817.09;;;18.50;100.00
64675;BME280;51090;51.512;11.332;2023-09-19T06:07:22;98808.00;;;18.56;100.00
64675;BME280;51090;51.512;11.332;2023-09-19T06:09:52;98808.63;;;18.63;100.00
64675;BME280;51090;51.512;11.332;2023-09-19T06:12:19;98813.50;;;18.66;100.00
64675;BME280;51090;51.512;11.332;2023-09-19T06:14:45;98810.94;;;18.77;100.00
64675;BME280;51090;51.512;11.332;2023-09-19T06:17:11;98815.81;;;18.80;99.99
64675;BME280;51090;51.512;11.332;2023-09-19T06:19:36;98825.78;;;18.84;100.00
64675;BME280;51090;51.512;11.332;2023-09-19T06:22:02;98834.09;;;18.83;100.00
64675;BME280;51090;51.512;11.332;2023-09-19T06:24:29;98842.16;;;18.83;100.00
64675;BME280;51090;51.512;11.332;2023-09-19T06:26:55;98832.78;;;18.85;100.00
64675;BME280;51090;51.512;11.332;2023-09-19T06:29:20;98838.16;;;18.85;100.00
64675;BME280;51090;51.512;11.332;2023-09-19T06:31:48;98841.06;;;18.79;100.00
64675;BME280;51090;51.512;11.332;2023-09-19T06:34:14;98852.09;;;18.82;100.00
64675;BME280;51090;51.512;11.332;2023-09-19T06:36:41;98856.66;;;18.82;100.00
64675;BME280;51090;51.512;11.332;2023-09-19T06:39:07;98864.78;;;18.87;100.00
64675;BME280;51090;51.512;11.332;2023-09-19T06:41:39;98864.16;;;18.80;95.60
64675;BME280;51090;51.512;11.332;2023-09-19T06:44:05;98871.47;;;18.84;100.00
64675;BME280;51090;51.512;11.332;2023-09-19T06:46:31;98866.28;;;18.78;96.20
64675;BME280;51090;51.512;11.332;2023-09-19T06:49:01;98882.25;;;18.89;100.00
64675;BME280;51090;51.512;11.332;2023-09-19T06:51:32;98890.72;;;19.03;100.00
64675;BME280;51090;51.512;11.332;2023-09-19T06:54:01;98892.03;;;19.28;100.00
64675;BME280;51090;51.512;11.332;2023-09-19T06:56:27;98896.78;;;19.48;100.00
64675;BME280;51090;51.512;11.332;2023-09-19T06:58:53;98894.44;;;19.56;98.23
64675;BME280;51090;51.512;11.332;2023-09-19T07:01:18;98903.47;;;19.72;97.11
64675;BME280;51090;51.512;11.332;2023-09-19T07:03:44;98907.00;;;19.78;97.46
64675;BME280;51090;51.512;11.332;2023-09-19T07:06:11;98910.88;;;19.92;98.05
64675;BME280;51090;51.512;11.332;2023-09-19T07:08:37;98920.91;;;20.02;97.16
64675;BME280;51090;51.512;11.332;2023-09-19T07:11:04;98938.13;;;20.06;95.96
64675;BME280;51090;51.512;11.332;2023-09-19T07:13:31;98935.69;;;19.99;93.92
64675;BME280;51090;51.512;11.332;2023-09-19T07:15:59;98943.41;;;19.91;94.15
64675;BME280;51090;51.512;11.332;2023-09-19T07:18:25;98949.03;;;19.84;94.68
64675;BME280;51090;51.512;11.332;2023-09-19T07:20:51;98941.88;;;19.68;93.27
64675;BME280;51090;51.512;11.332;2023-09-19T07:23:24;98954.75;;;19.66;93.17
64675;BME280;51090;51.512;11.332;2023-09-19T07:25:51;98954.75;;;19.66;94.55
64675;BME280;51090;51.512;11.332;2023-09-19T07:28:17;98949.34;;;19.61;93.67
64675;BME280;51090;51.512;11.332;2023-09-19T07:30:43;98958.16;;;19.56;93.52
64675;BME280;51090;51.512;11.332;2023-09-19T07:33:09;98950.91;;;19.56;94.17
64675;BME280;51090;51.512;11.332;2023-09-19T07:35:38;98960.88;;;19.56;93.13
64675;BME280;51090;51.512;11.332;2023-09-19T07:38:08;98958.38;;;19.49;92.48
64675;BME280;51090;51.512;11.332;2023-09-19T07:40:34;98962.31;;;19.42;92.15
64675;BME280;51090;51.512;11.332;2023-09-19T07:43:00;98937.19;;;19.26;92.54
64675;BME280;51090;51.512;11.332;2023-09-19T07:45:30;98961.22;;;19.38;92.58
64675;BME280;51090;51.512;11.332;2023-09-19T07:47:57;98969.81;;;19.34;90.28
64675;BME280;51090;51.512;11.332;2023-09-19T07:50:23;98965.28;;;19.40;89.24
64675;BME280;51090;51.512;11.332;2023-09-19T07:52:50;98978.66;;;19.62;92.97
64675;BME280;51090;51.512;11.332;2023-09-19T07:55:20;98974.28;;;19.83;88.79
64675;BME280;51090;51.512;11.332;2023-09-19T07:57:49;98976.81;;;19.95;86.61
64675;BME280;51090;51.512;11.332;2023-09-19T08:00:15;98975.28;;;20.04;85.74
64675;BME280;51090;51.512;11.332;2023-09-19T08:02:42;98954.47;;;19.94;80.84
64675;BME280;51090;51.512;11.332;2023-09-19T08:05:12;98978.28;;;20.13;81.63
64675;BME280;51090;51.512;11.332;2023-09-19T08:07:42;98971.50;;;20.05;80.89
64675;BME280;51090;51.512;11.332;2023-09-19T08:10:09;98967.03;;;20.21;82.84
64675;BME280;51090;51.512;11.332;2023-09-19T08:12:45;98977.84;;;20.26;79.36
64675;BME280;51090;51.512;11.332;2023-09-19T08:15:15;98993.84;;;20.43;77.60
64675;BME280;51090;51.512;11.332;2023-09-19T08:17:41;98996.81;;;20.47;81.98
64675;BME280;51090;51.512;11.332;2023-09-19T08:20:08;98993.31;;;20.46;73.78
64675;BME280;51090;51.512;11.332;2023-09-19T08:22:50;99009.00;;;20.54;74.64
64675;BME280;51090;51.512;11.332;2023-09-19T08:25:18;99007.75;;;20.67;74.75
64675;BME280;51090;51.512;11.332;2023-09-19T08:27:48;99012.06;;;20.68;73.57
64675;BME280;51090;51.512;11.332;2023-09-19T08:30:23;99014.34;;;20.49;70.35
64675;BME280;51090;51.512;11.332;2023-09-19T08:32:50;99022.53;;;20.64;75.75
64675;BME280;51090;51.512;11.332;2023-09-19T08:35:16;99016.72;;;20.83;76.10
64675;BME280;51090;51.512;11.332;2023-09-19T08:37:44;99017.59;;;20.99;75.10
64675;BME280;51090;51.512;11.332;2023-09-19T08:40:13;99022.75;;;21.05;73.61
64675;BME280;51090;51.512;11.332;2023-09-19T08:42:54;99031.91;;;21.04;71.41
64675;BME280;51090;51.512;11.332;2023-09-19T08:45:24;99023.59;;;21.16;69.00
64675;BME280;51090;51.512;11.332;2023-09-19T08:48:28;99016.09;;;21.28;67.51
64675;BME280;51090;51.512;11.332;2023-09-19T08:51:08;99019.88;;;21.33;65.10
64675;BME280;51090;51.512;11.332;2023-09-19T08:56:13;99013.63;;;21.27;67.49
64675;BME280;51090;51.512;11.332;2023-09-19T08:58:53;99026.34;;;21.31;64.32
64675;BME280;51090;51.512;11.332;2023-09-19T09:01:21;99036.56;;;21.29;67.70
64675;BME280;51090;51.512;11.332;2023-09-19T09:03:54;99036.09;;;21.38;68.19
64675;BME280;51090;51.512;11.332;2023-09-19T09:06:21;99040.47;;;21.54;69.41
64675;BME280;51090;51.512;11.332;2023-09-19T09:08:47;99048.56;;;21.54;66.66
64675;BME280;51090;51.512;11.332;2023-09-19T09:11:16;99053.38;;;21.42;67.19
64675;BME280;51090;51.512;11.332;2023-09-19T09:13:44;99041.72;;;21.31;66.16
64675;BME280;51090;51.512;11.332;2023-09-19T09:16:10;99044.69;;;21.35;66.12
64675;BME280;51090;51.512;11.332;2023-09-19T09:18:36;99056.88;;;21.42;68.73
64675;BME280;51090;51.512;11.332;2023-09-19T09:21:03;99064.72;;;21.49;67.82
64675;BME280;51090;51.512;11.332;2023-09-19T09:23:30;99056.59;;;21.39;66.75
64675;BME280;51090;51.512;11.332;2023-09-19T09:25:59;99059.75;;;21.25;66.29
64675;BME280;51090;51.512;11.332;2023-09-19T09:28:30;99067.31;;;21.23;68.42
64675;BME280;51090;51.512;11.332;2023-09-19T09:30:57;99069.97;;;21.18;64.33
64675;BME280;51090;51.512;11.332;2023-09-19T09:33:24;99066.75;;;21.21;66.04
64675;BME280;51090;51.512;11.332;2023-09-19T09:35:56;99043.47;;;21.00;64.00
64675;BME280;51090;51.512;11.332;2023-09-19T09:38:27;99069.44;;;21.21;67.30
64675;BME280;51090;51.512;11.332;2023-09-19T09:40:55;99072.13;;;21.21;66.28
64675;BME280;51090;51.512;11.332;2023-09-19T09:43:37;99073.22;;;21.15;65.11
64675;BME280;51090;51.512;11.332;2023-09-19T09:46:11;99073.72;;;21.07;63.93
64675;BME280;51090;51.512;11.332;2023-09-19T09:49:05;99069.44;;;21.21;64.24
64675;BME280;51090;51.512;11.332;2023-09-19T09:52:02;99074.31;;;21.24;63.11
64675;BME280;51090;51.512;11.332;2023-09-19T09:54:34;99067.41;;;21.49;66.75
64675;BME280;51090;51.512;11.332;2023-09-19T09:57:07;99074.25;;;21.82;64.14
64675;BME280;51090;51.512;11.332;2023-09-19T09:59:52;99071.28;;;21.84;61.76
64675;BME280;51090;51.512;11.332;2023-09-19T10:02:35;99071.31;;;21.94;61.95
64675;BME280;51090;51.512;11.332;2023-09-19T10:05:20;99070.19;;;21.85;60.23
64675;BME280;51090;51.512;11.332;2023-09-19T10:07:51;99064.53;;;21.86;62.89
64675;BME280;51090;51.512;11.332;2023-09-19T10:10:39;99062.13;;;21.90;59.73
64675;BME280;51090;51.512;11.332;2023-09-19T10:13:12;99069.13;;;22.01;62.38
64675;BME280;51090;51.512;11.332;2023-09-19T10:15:39;99057.81;;;22.09;62.62
64675;BME280;51090;51.512;11.332;2023-09-19T10:18:12;99060.22;;;22.01;63.62
64675;BME280;51090;51.512;11.332;2023-09-19T10:20:46;99060.50;;;21.99;61.64
64675;BME280;51090;51.512;11.332;2023-09-19T10:23:17;99064.59;;;22.22;63.50
64675;BME280;51090;51.512;11.332;2023-09-19T10:25:48;99057.84;;;22.25;63.56
64675;BME280;51090;51.512;11.332;2023-09-19T10:28:16;99061.34;;;22.25;63.45
64675;BME280;51090;51.512;11.332;2023-09-19T10:30:51;99051.63;;;22.24;60.60
64675;BME280;51090;51.512;11.332;2023-09-19T10:33:23;99039.97;;;22.13;62.05
64675;BME280;51090;51.512;11.332;2023-09-19T10:35:52;99060.25;;;22.47;65.44
64675;BME280;51090;51.512;11.332;2023-09-19T10:38:24;99072.38;;;22.70;63.71
64675;BME280;51090;51.512;11.332;2023-09-19T10:40:56;99064.22;;;22.85;62.14
64675;BME280;51090;51.512;11.332;2023-09-19T10:43:32;99072.31;;;22.90;62.19
64675;BME280;51090;51.512;11.332;2023-09-19T10:46:11;99073.91;;;22.96;60.89
64675;BME280;51090;51.512;11.332;2023-09-19T10:48:39;99075.28;;;22.99;61.42
64675;BME280;51090;51.512;11.332;2023-09-19T10:51:12;99064.78;;;22.82;59.47
64675;BME280;51090;51.512;11.332;2023-09-19T10:54:11;99059.34;;;22.92;61.55
64675;BME280;51090;51.512;11.332;2023-09-19T10:56:43;99063.03;;;23.22;64.12
64675;BME280;51090;51.512;11.332;2023-09-19T10:59:15;99074.09;;;23.36;61.49
64675;BME280;51090;51.512;11.332;2023-09-19T11:01:50;99091.16;;;23.31;60.99
64675;BME280;51090;51.512;11.332;2023-09-19T11:04:32;99074.13;;;23.25;58.64
64675;BME280;51090;51.512;11.332;2023-09-19T11:07:04;99089.00;;;23.28;60.71
64675;BME280;51090;51.512;11.332;2023-09-19T11:09:54;99091.31;;;23.50;59.41
64675;BME280;51090;51.512;11.332;2023-09-19T11:14:56;99083.06;;;23.21;59.85
64675;BME280;51090;51.512;11.332;2023-09-19T11:17:31;99074.41;;;23.19;57.37
64675;BME280;51090;51.512;11.332;2023-09-19T11:30:32;99082.44;;;23.44;61.32
64675;BME280;51090;51.512;11.332;2023-09-19T11:33:30;99067.31;;;23.38;57.01
64675;BME280;51090;51.512;11.332;2023-09-19T11:36:02;99076.41;;;23.53;58.04
64675;BME280;51090;51.512;11.332;2023-09-19T11:39:01;99071.56;;;23.55;56.43
64675;BME280;51090;51.512;11.332;2023-09-19T11:41:37;99065.22;;;23.25;56.24
64675;BME280;51090;51.512;11.332;2023-09-19T11:49:32;99066.25;;;23.34;57.01
64675;BME280;51090;51.512;11.332;2023-09-19T11:52:02;99057.38;;;23.23;56.50
64675;BME280;51090;51.512;11.332;2023-09-19T11:54:32;99071.03;;;23.47;59.76
64675;BME280;51090;51.512;11.332;2023-09-19T11:56:59;99058.59;;;23.46;57.71
64675;BME280;51090;51.512;11.332;2023-09-19T11:59:28;99056.84;;;23.66;58.60
64675;BME280;51090;51.512;11.332;2023-09-19T12:02:04;99077.84;;;23.95;58.21
64675;BME280;51090;51.512;11.332;2023-09-19T12:04:40;99069.78;;;23.84;54.63
64675;BME280;51090;51.512;11.332;2023-09-19T12:07:12;99071.56;;;23.99;57.74
64675;BME280;51090;51.512;11.332;2023-09-19T12:10:03;99073.50;;;23.94;53.66
64675;BME280;51090;51.512;11.332;2023-09-19T12:12:30;99075.09;;;24.00;57.87
64675;BME280;51090;51.512;11.332;2023-09-19T12:14:58;99077.66;;;24.20;58.20
64675;BME280;51090;51.512;11.332;2023-09-19T12:17:35;99053.69;;;24.32;53.03
64675;BME280;51090;51.512;11.332;2023-09-19T12:20:01;99065.78;;;24.45;55.06
64675;BME280;51090;51.512;11.332;2023-09-19T12:22:46;99085.84;;;24.44;53.74
64675;BME280;51090;51.512;11.332;2023-09-19T12:25:15;99068.75;;;24.49;54.62
64675;BME280;51090;51.512;11.332;2023-09-19T12:27:45;99065.69;;;24.55;56.41
64675;BME280;51090;51.512;11.332;2023-09-19T12:30:13;99070.72;;;24.38;52.13
64675;BME280;51090;51.512;11.332;2023-09-19T12:32:44;99062.88;;;24.37;51.79
64675;BME280;51090;51.512;11.332;2023-09-19T12:35:30;99085.97;;;24.29;51.50
64675;BME280;51090;51.512;11.332;2023-09-19T12:37:56;99069.81;;;24.19;52.79
64675;BME280;51090;51.512;11.332;2023-09-19T12:40:23;99075.72;;;24.26;55.12
64675;BME280;51090;51.512;11.332;2023-09-19T12:42:54;99070.91;;;24.18;52.77
64675;BME280;51090;51.512;11.332;2023-09-19T12:45:29;99071.88;;;24.27;55.58
64675;BME280;51090;51.512;11.332;2023-09-19T12:48:22;99082.91;;;24.41;52.25
64675;BME280;51090;51.512;11.332;2023-09-19T12:51:08;99058.38;;;24.22;52.45
64675;BME280;51090;51.512;11.332;2023-09-19T12:53:40;99074.59;;;24.27;56.05
64675;BME280;51090;51.512;11.332;2023-09-19T12:56:08;99076.91;;;24.09;55.35
64675;BME280;51090;51.512;11.332;2023-09-19T12:58:54;99060.91;;;24.13;53.03
64675;BME280;51090;51.512;11.332;2023-09-19T13:01:21;99088.53;;;24.15;55.68
64675;BME280;51090;51.512;11.332;2023-09-19T13:04:25;99078.16;;;24.22;53.07
64675;BME280;51090;51.512;11.332;2023-09-19T13:06:53;99069.53;;;24.20;55.67
64675;BME280;51090;51.512;11.332;2023-09-19T13:09:22;99071.41;;;24.20;54.58
64675;BME280;51090;51.512;11.332;2023-09-19T13:11:53;99070.56;;;24.24;55.63
64675;BME280;51090;51.512;11.332;2023-09-19T13:14:23;99060.25;;;24.26;55.15
64675;BME280;51090;51.512;11.332;2023-09-19T13:17:08;99047.56;;;24.22;53.54
64675;BME280;51090;51.512;11.332;2023-09-19T13:19:51;99057.78;;;24.30;55.31
64675;BME280;51090;51.512;11.332;2023-09-19T13:22:44;99051.72;;;24.43;54.92
64675;BME280;51090;51.512;11.332;2023-09-19T13:25:21;99055.31;;;24.33;56.61
64675;BME280;51090;51.512;11.332;2023-09-19T13:27:55;99048.63;;;24.26;56.45
64675;BME280;51090;51.512;11.332;2023-09-19T13:30:26;99059.22;;;24.17;56.40
64675;BME280;51090;51.512;11.332;2023-09-19T13:33:11;99057.47;;;24.02;54.33
64675;BME280;51090;51.512;11.332;2023-09-19T13:35:38;99054.47;;;24.04;54.69